Time;durP1;ratioP1;P1;durP2;ratioP2;P2;SDS_P1;SDS_P2;PMS_P1;PMS_P2;Temp;Humidity;BMP_temperature;BMP_pressure;BME280_temperature;BME280_humidity;BME280_pressure;Samples;Min_cycle;Max_cycle;Signal;HPM_P1;HPM_P2
2022/07/16 00:03:16;;;;;;;2.53;1.40;;;16.30;99.90;;;;;;5015684;28;20045;-64
2022/07/16 00:05:42;;;;;;;6.57;1.92;;;16.20;99.90;;;;;;5013025;28;20492;-63
2022/07/16 00:08:08;;;;;;;3.10;1.73;;;16.10;99.90;;;;;;5026352;28;20046;-62
2022/07/16 00:10:34;;;;;;;4.10;2.03;;;16.30;99.90;;;;;;5030821;28;20453;-62
2022/07/16 00:12:59;;;;;;;4.60;2.20;;;16.10;99.90;;;;;;5020707;28;20119;-63
2022/07/16 00:15:25;;;;;;;4.15;2.38;;;16.30;99.90;;;;;;5010239;28;20072;-63
2022/07/16 00:19:15;;;;;;;5.85;1.92;;;16.00;99.90;;;;;;5015116;28;20026;-63
2022/07/16 00:20:38;;;;;;;5.43;2.58;;;16.20;99.90;;;;;;5024210;28;20041;-62
2022/07/16 00:23:06;;;;;;;4.18;2.45;;;16.10;99.90;;;;;;5026261;28;20040;-62
2022/07/16 00:25:33;;;;;;;7.97;2.00;;;15.90;99.90;;;;;;5016308;28;20405;-63
2022/07/16 00:27:58;;;;;;;4.47;2.30;;;16.20;99.90;;;;;;5033625;28;20435;-62
2022/07/16 00:30:24;;;;;;;3.55;2.13;;;16.30;99.90;;;;;;5034630;28;20053;-63
2022/07/16 00:32:49;;;;;;;4.20;1.90;;;15.90;99.90;;;;;;5020591;28;20037;-63
2022/07/16 00:35:17;;;;;;;6.03;2.30;;;16.00;99.90;;;;;;5033812;28;20049;-63
2022/07/16 00:37:43;;;;;;;4.65;2.22;;;16.20;99.90;;;;;;5034570;28;20452;-62
2022/07/16 00:40:08;;;;;;;2.90;2.10;;;16.20;99.90;;;;;;5025497;28;20129;-63
2022/07/16 00:42:34;;;;;;;3.80;2.28;;;16.30;99.90;;;;;;5030014;28;20495;-64
2022/07/16 00:45:00;;;;;;;3.97;2.00;;;16.40;99.90;;;;;;5026258;28;20041;-63
2022/07/16 00:47:25;;;;;;;2.65;1.90;;;16.30;99.90;;;;;;5027300;28;20037;-63
2022/07/16 00:49:51;;;;;;;2.58;1.90;;;16.40;99.90;;;;;;5020620;28;20136;-62
2022/07/16 00:52:16;;;;;;;5.30;2.22;;;16.30;99.90;;;;;;5034557;28;20034;-62
2022/07/16 00:54:42;;;;;;;5.72;2.17;;;16.10;99.90;;;;;;5033413;28;20056;-62
2022/07/16 00:57:07;;;;;;;4.63;2.47;;;16.50;99.90;;;;;;5026013;28;20037;-62
2022/07/16 00:59:33;;;;;;;9.25;3.03;;;16.30;99.90;;;;;;5013590;28;20042;-63
2022/07/16 01:01:59;;;;;;;5.80;2.45;;;16.40;99.90;;;;;;5032822;28;20081;-63
2022/07/16 01:04:25;;;;;;;5.97;2.40;;;16.50;99.90;;;;;;5034251;28;20042;-62
2022/07/16 01:06:50;;;;;;;7.30;3.83;;;16.60;99.90;;;;;;5034287;28;20079;-62
2022/07/16 01:09:17;;;;;;;3.22;1.88;;;16.50;99.90;;;;;;5032879;28;20045;-63
2022/07/16 01:11:47;;;;;;;3.83;2.28;;;16.40;99.90;;;;;;5031535;28;20442;-62
2022/07/16 01:14:16;;;;;;;6.32;2.25;;;16.50;99.90;;;;;;5023404;28;20068;-63
2022/07/16 01:16:43;;;;;;;3.78;1.73;;;16.50;99.90;;;;;;5031127;28;20045;-63
2022/07/16 01:19:10;;;;;;;4.15;2.20;;;16.40;99.90;;;;;;5014177;28;20030;-62
2022/07/16 01:21:36;;;;;;;7.13;2.60;;;16.50;99.90;;;;;;5014109;28;20076;-63
2022/07/16 01:24:02;;;;;;;6.25;2.70;;;16.70;99.90;;;;;;5019103;28;20033;-63
2022/07/16 01:26:27;;;;;;;7.78;3.10;;;16.20;99.90;;;;;;5033841;28;20105;-63
2022/07/16 01:28:55;;;;;;;3.95;2.33;;;16.40;99.90;;;;;;5033416;28;20037;-63
2022/07/16 01:31:20;;;;;;;5.53;2.67;;;16.50;99.90;;;;;;5033670;28;20039;-62
2022/07/16 01:34:24;;;;;;;5.10;3.00;;;16.40;99.90;;;;;;5018675;28;20400;-63
2022/07/16 01:36:32;;;;;;;4.97;2.20;;;16.70;99.90;;;;;;5033425;28;20042;-62
2022/07/16 01:38:57;;;;;;;4.35;2.47;;;16.20;99.90;;;;;;5032149;28;20399;-63
2022/07/16 01:41:23;;;;;;;5.70;2.40;;;16.70;99.90;;;;;;5031995;28;20487;-62
2022/07/16 01:43:48;;;;;;;4.72;2.33;;;16.40;99.90;;;;;;5033282;28;20416;-63
2022/07/16 01:46:14;;;;;;;4.03;2.20;;;16.50;99.90;;;;;;5019274;28;20446;-63
2022/07/16 01:48:39;;;;;;;3.25;1.77;;;16.40;99.90;;;;;;5033359;28;20073;-63
2022/07/16 01:51:05;;;;;;;2.45;1.83;;;16.40;99.90;;;;;;5033172;28;20034;-62
2022/07/16 01:53:30;;;;;;;9.25;2.67;;;16.50;99.90;;;;;;5031963;28;20403;-63
2022/07/16 01:55:59;;;;;;;5.13;2.25;;;16.30;99.90;;;;;;5032872;28;20477;-63
2022/07/16 01:58:25;;;;;;;5.95;1.77;;;16.30;99.90;;;;;;5033087;28;20088;-62
2022/07/16 02:00:51;;;;;;;5.57;2.40;;;16.40;99.90;;;;;;5032089;28;20049;-64
2022/07/16 02:03:17;;;;;;;5.68;2.22;;;16.50;99.90;;;;;;5025838;28;20515;-62
2022/07/16 02:05:43;;;;;;;3.65;2.17;;;16.30;99.90;;;;;;5025572;28;20049;-64
2022/07/16 02:08:09;;;;;;;7.88;2.47;;;16.30;99.90;;;;;;5017519;28;20037;-64
2022/07/16 02:10:35;;;;;;;5.97;1.70;;;16.40;99.90;;;;;;5032855;28;20029;-63
2022/07/16 02:13:02;;;;;;;3.47;1.65;;;16.30;99.90;;;;;;5030441;28;20112;-62
2022/07/16 02:15:27;;;;;;;4.10;1.52;;;16.10;99.90;;;;;;5021672;28;20037;-62
2022/07/16 02:17:53;;;;;;;5.65;1.50;;;16.30;99.90;;;;;;5031394;28;20078;-63
2022/07/16 02:20:19;;;;;;;4.80;1.42;;;16.10;99.90;;;;;;5032743;28;20038;-62
2022/07/16 02:22:47;;;;;;;8.65;1.90;;;16.30;99.90;;;;;;5019068;28;20038;-62
2022/07/16 02:25:13;;;;;;;2.67;1.10;;;16.30;99.90;;;;;;5009464;28;20056;-62
2022/07/16 02:28:05;;;;;;;5.80;1.30;;;16.20;99.90;;;;;;5032727;28;20037;-63
2022/07/16 02:30:28;;;;;;;4.80;1.30;;;16.10;99.90;;;;;;5030657;28;20041;-62
2022/07/16 02:32:53;;;;;;;5.80;1.58;;;16.20;99.90;;;;;;5011667;28;20042;-62
2022/07/16 02:35:19;;;;;;;3.78;1.40;;;16.00;99.90;;;;;;5025278;28;20160;-62
2022/07/16 02:37:45;;;;;;;6.00;1.55;;;16.00;99.90;;;;;;5025004;28;20034;-63
2022/07/16 02:40:13;;;;;;;5.63;1.48;;;16.10;99.90;;;;;;5024370;28;20052;-64
2022/07/16 02:42:39;;;;;;;8.60;2.03;;;16.10;99.90;;;;;;5017162;28;20049;-64
2022/07/16 02:45:07;;;;;;;4.43;1.30;;;16.10;99.90;;;;;;5032703;28;20048;-64
2022/07/16 02:47:33;;;;;;;3.03;1.05;;;16.10;99.90;;;;;;5028360;28;20041;-64
2022/07/16 02:49:59;;;;;;;4.30;1.42;;;16.00;99.90;;;;;;5023595;28;20053;-62
2022/07/16 02:52:24;;;;;;;6.30;1.17;;;16.20;99.90;;;;;;5013080;28;20061;-64
2022/07/16 02:54:50;;;;;;;3.97;1.48;;;16.00;99.90;;;;;;5032283;28;20044;-63
2022/07/16 02:57:15;;;;;;;5.60;1.70;;;16.20;99.90;;;;;;5032482;28;20042;-64
2022/07/16 02:59:41;;;;;;;5.55;1.77;;;16.10;99.90;;;;;;5032379;28;20083;-64
2022/07/16 03:02:07;;;;;;;4.25;1.15;;;16.20;99.90;;;;;;5021976;28;20119;-64
2022/07/16 03:04:32;;;;;;;5.55;1.50;;;15.90;99.90;;;;;;5027254;28;20424;-64
2022/07/16 03:06:58;;;;;;;7.63;2.20;;;16.20;99.90;;;;;;5032061;28;20065;-64
2022/07/16 03:09:23;;;;;;;3.35;1.70;;;16.10;99.90;;;;;;5032184;28;20429;-62
2022/07/16 03:11:49;;;;;;;3.25;1.38;;;16.20;99.90;;;;;;5030742;28;20606;-62
2022/07/16 03:14:14;;;;;;;5.28;1.35;;;16.00;99.90;;;;;;5031002;28;20450;-62
2022/07/16 03:16:40;;;;;;;5.97;1.45;;;16.20;99.90;;;;;;5027985;28;20492;-63
2022/07/16 03:19:05;;;;;;;8.07;1.60;;;16.00;99.90;;;;;;5021190;28;20495;-63
2022/07/16 03:21:31;;;;;;;6.30;1.80;;;15.80;99.90;;;;;;5030465;28;20124;-63
2022/07/16 03:23:57;;;;;;;6.28;1.42;;;15.90;99.90;;;;;;5016921;28;20042;-62
2022/07/16 03:26:22;;;;;;;5.75;1.52;;;16.10;99.90;;;;;;5030507;28;20037;-63
2022/07/16 03:28:51;;;;;;;6.28;1.40;;;16.10;99.90;;;;;;5030042;28;20399;-62
2022/07/16 03:31:17;;;;;;;6.32;1.60;;;15.70;99.90;;;;;;5021029;28;20037;-62
2022/07/16 03:33:43;;;;;;;5.47;1.63;;;15.90;99.90;;;;;;5031695;28;20107;-63
2022/07/16 03:36:09;;;;;;;4.13;1.70;;;15.70;99.90;;;;;;5032066;28;20091;-63
2022/07/16 03:41:19;;;;;;;3.05;1.55;;;15.50;99.90;;;;;;5007867;28;20057;-62
2022/07/16 03:43:44;;;;;;;2.85;1.60;;;15.50;99.90;;;;;;5035914;28;20368;-62
2022/07/16 03:46:13;;;;;;;5.05;1.45;;;15.60;99.90;;;;;;5032545;28;20036;-63
2022/07/16 03:48:41;;;;;;;5.07;1.58;;;15.40;99.90;;;;;;5050999;28;20376;-63
2022/07/16 03:51:07;;;;;;;5.07;1.83;;;15.40;99.90;;;;;;5035684;28;20030;-62
2022/07/16 03:53:33;;;;;;;5.80;1.50;;;15.20;99.90;;;;;;5034136;28;20056;-63
2022/07/16 03:55:59;;;;;;;4.80;1.90;;;15.50;99.90;;;;;;5033497;28;20041;-63
2022/07/16 03:58:26;;;;;;;3.42;1.35;;;15.20;99.90;;;;;;5023722;28;20124;-63
2022/07/16 04:00:52;;;;;;;3.28;1.58;;;15.40;99.90;;;;;;5033835;28;20069;-63
2022/07/16 04:03:18;;;;;;;4.00;1.60;;;15.30;99.90;;;;;;5035484;28;20045;-63
2022/07/16 04:05:43;;;;;;;5.32;1.50;;;15.20;99.90;;;;;;5023546;28;20034;-62
2022/07/16 04:08:09;;;;;;;4.30;1.48;;;15.20;99.90;;;;;;5028995;28;20042;-63
2022/07/16 04:10:35;;;;;;;8.55;1.67;;;15.20;99.90;;;;;;5014531;28;20045;-62
2022/07/16 04:13:00;;;;;;;7.80;1.85;;;15.20;99.90;;;;;;5015403;28;20029;-63
2022/07/16 04:15:29;;;;;;;3.78;1.48;;;15.00;99.90;;;;;;5015440;28;20480;-63
2022/07/16 04:17:54;;;;;;;8.00;2.08;;;15.30;99.90;;;;;;5028318;28;20045;-62
2022/07/16 04:20:20;;;;;;;5.15;1.92;;;15.20;99.90;;;;;;5019852;28;20107;-62
2022/07/16 04:22:46;;;;;;;6.30;1.90;;;15.20;99.90;;;;;;5017677;28;20121;-62
2022/07/16 04:25:14;;;;;;;4.70;1.70;;;14.90;99.90;;;;;;5028154;28;20049;-63
2022/07/16 04:27:41;;;;;;;6.10;1.40;;;15.30;99.90;;;;;;5033632;28;20041;-61
2022/07/16 04:30:08;;;;;;;3.75;1.80;;;15.40;99.90;;;;;;5034711;28;20034;-63
2022/07/16 04:32:34;;;;;;;3.05;1.38;;;15.30;99.90;;;;;;5033402;28;20504;-62
2022/07/16 04:35:00;;;;;;;6.93;1.60;;;15.30;99.90;;;;;;5022472;28;20046;-62
2022/07/16 04:37:25;;;;;;;4.60;1.40;;;15.20;99.90;;;;;;5030714;28;20067;-63
2022/07/16 04:39:51;;;;;;;9.23;1.80;;;15.20;99.90;;;;;;5034645;28;20057;-62
2022/07/16 04:42:17;;;;;;;6.80;1.98;;;15.40;99.90;;;;;;5048605;28;20399;-66
2022/07/16 04:44:43;;;;;;;4.10;1.52;;;15.50;99.90;;;;;;5020616;28;20056;-63
2022/07/16 04:47:09;;;;;;;6.85;1.85;;;15.30;99.90;;;;;;5031801;28;20037;-62
2022/07/16 04:49:35;;;;;;;6.40;1.88;;;15.40;99.90;;;;;;5033126;28;20483;-62
2022/07/16 04:52:00;;;;;;;5.88;1.10;;;15.40;99.90;;;;;;5021810;28;20116;-62
2022/07/16 04:54:26;;;;;;;7.05;1.90;;;15.50;99.90;;;;;;5014562;28;20503;-62
2022/07/16 04:56:52;;;;;;;6.03;1.60;;;15.70;99.90;;;;;;5014721;28;20034;-63
2022/07/16 04:59:19;;;;;;;9.77;1.38;;;15.80;99.90;;;;;;5028123;28;20392;-63
2022/07/16 05:01:45;;;;;;;6.70;1.65;;;15.90;99.90;;;;;;5034208;28;20046;-62
2022/07/16 05:04:11;;;;;;;5.85;1.52;;;15.90;99.90;;;;;;5019590;28;20042;-62
2022/07/16 05:06:37;;;;;;;6.70;1.60;;;15.90;99.90;;;;;;5015447;28;20396;-62
2022/07/16 05:09:03;;;;;;;6.97;1.27;;;16.20;99.90;;;;;;5026014;28;20128;-63
2022/07/16 05:11:28;;;;;;;9.23;1.67;;;16.30;99.90;;;;;;5016553;28;20072;-63
2022/07/16 05:13:54;;;;;;;4.65;1.40;;;16.60;99.90;;;;;;5014177;28;20470;-65
2022/07/16 05:16:20;;;;;;;4.22;0.90;;;16.50;99.90;;;;;;5026750;28;20404;-62
2022/07/16 05:18:46;;;;;;;6.53;1.33;;;16.50;99.90;;;;;;5022005;28;20076;-62
2022/07/16 05:21:12;;;;;;;6.55;1.52;;;16.50;99.90;;;;;;5032640;28;20088;-63
2022/07/16 05:23:37;;;;;;;3.72;1.17;;;16.00;99.90;;;;;;5018085;28;20037;-62
2022/07/16 05:26:03;;;;;;;3.92;1.70;;;16.50;99.90;;;;;;5013793;28;20041;-63
2022/07/16 05:28:29;;;;;;;5.57;0.90;;;16.40;99.90;;;;;;5013677;28;20048;-63
2022/07/16 05:30:54;;;;;;;4.00;1.10;;;16.50;99.90;;;;;;5013725;28;20423;-63
2022/07/16 05:33:20;;;;;;;5.95;1.13;;;16.30;99.90;;;;;;5012841;28;20447;-62
2022/07/16 05:35:46;;;;;;;4.70;1.38;;;16.80;99.90;;;;;;5012840;28;20033;-62
2022/07/16 05:38:11;;;;;;;7.88;1.17;;;16.90;99.90;;;;;;5012115;28;20038;-63
2022/07/16 05:40:37;;;;;;;7.80;0.95;;;16.90;99.90;;;;;;5013470;28;20065;-63
2022/07/16 05:43:02;;;;;;;5.03;1.30;;;17.00;99.90;;;;;;5013317;28;20104;-64
2022/07/16 05:45:28;;;;;;;7.22;1.17;;;17.20;99.90;;;;;;5013571;28;20065;-63
2022/07/16 05:47:54;;;;;;;5.18;0.95;;;17.50;99.90;;;;;;5012207;28;20042;-63
2022/07/16 05:50:19;;;;;;;2.63;0.93;;;17.50;99.90;;;;;;5013443;28;20037;-62
2022/07/16 05:52:45;;;;;;;6.13;0.80;;;17.70;99.90;;;;;;5013178;28;20034;-63
2022/07/16 05:55:11;;;;;;;7.10;1.00;;;18.70;99.90;;;;;;5012129;28;20041;-63
2022/07/16 05:57:37;;;;;;;6.82;1.05;;;18.00;99.90;;;;;;5011781;28;20073;-63
2022/07/16 06:00:04;;;;;;;6.65;1.13;;;18.20;99.90;;;;;;5012002;28;20065;-63
2022/07/16 06:02:30;;;;;;;3.47;0.60;;;18.70;99.90;;;;;;5012120;28;20400;-63
2022/07/16 06:04:56;;;;;;;8.52;1.23;;;18.70;99.90;;;;;;5012716;28;20053;-63
2022/07/16 06:07:24;;;;;;;4.28;0.70;;;19.20;99.90;;;;;;5013209;28;20392;-62
2022/07/16 06:09:52;;;;;;;6.60;1.35;;;19.00;99.90;;;;;;5013209;28;20108;-63
2022/07/16 06:12:18;;;;;;;4.65;0.80;;;18.60;99.90;;;;;;5011825;28;20053;-63
2022/07/16 06:14:43;;;;;;;7.75;0.85;;;19.00;99.90;;;;;;5013255;28;20480;-63
2022/07/16 06:17:09;;;;;;;5.07;0.70;;;18.90;99.90;;;;;;5013011;28;20044;-62
2022/07/16 06:19:41;;;;;;;3.00;0.80;;;18.50;99.90;;;;;;5014616;28;20042;-63
2022/07/16 06:22:06;;;;;;;5.90;1.17;;;18.80;99.90;;;;;;5011807;28;20042;-63
2022/07/16 06:24:32;;;;;;;5.00;0.98;;;19.70;99.90;;;;;;5012852;28;20477;-62
2022/07/16 06:26:57;;;;;;;2.75;0.55;;;18.40;99.90;;;;;;5013176;28;20453;-65
2022/07/16 06:29:23;;;;;;;5.95;0.88;;;18.50;99.90;;;;;;5011813;28;20534;-65
2022/07/16 06:31:48;;;;;;;4.78;0.70;;;18.40;99.90;;;;;;5011140;28;20088;-65
2022/07/16 06:34:14;;;;;;;3.13;0.60;;;18.10;99.90;;;;;;5012789;28;20046;-65
2022/07/16 06:36:39;;;;;;;4.10;1.23;;;18.20;99.90;;;;;;5026609;28;20042;-65
2022/07/16 06:39:05;;;;;;;7.28;1.15;;;17.80;99.90;;;;;;5009714;28;20041;-62
2022/07/16 06:41:31;;;;;;;5.55;0.90;;;17.70;99.90;;;;;;5000670;28;20038;-64
2022/07/16 06:43:57;;;;;;;4.30;0.77;;;17.40;99.90;;;;;;5012821;28;20164;-65
2022/07/16 06:46:22;;;;;;;9.73;1.33;;;17.50;99.90;;;;;;5011709;28;20492;-65
2022/07/16 06:48:48;;;;;;;6.32;1.15;;;17.20;99.90;;;;;;5012254;28;20075;-65
2022/07/16 06:51:13;;;;;;;6.10;0.88;;;17.40;99.90;;;;;;5010898;28;20042;-65
2022/07/16 06:53:39;;;;;;;8.25;1.30;;;17.20;99.90;;;;;;5012729;28;20049;-65
2022/07/16 06:56:06;;;;;;;7.90;0.82;;;17.20;99.90;;;;;;5012392;28;20037;-64
2022/07/16 06:58:32;;;;;;;7.22;1.02;;;17.10;99.90;;;;;;5012505;28;20037;-65
2022/07/16 07:00:59;;;;;;;4.05;0.85;;;17.00;99.90;;;;;;5012025;28;20500;-65
2022/07/16 07:03:24;;;;;;;7.50;0.80;;;17.00;99.90;;;;;;5012439;28;20066;-65
2022/07/16 07:05:50;;;;;;;8.57;1.08;;;17.20;99.90;;;;;;5012582;28;20061;-65
2022/07/16 07:08:15;;;;;;;5.65;1.35;;;17.30;99.90;;;;;;5010839;28;20046;-63
2022/07/16 07:10:41;;;;;;;4.68;0.98;;;17.20;99.90;;;;;;5012120;28;20038;-64
2022/07/16 07:13:06;;;;;;;8.82;1.13;;;17.50;99.90;;;;;;5010753;28;20052;-65
2022/07/16 07:15:32;;;;;;;3.63;0.90;;;17.70;99.90;;;;;;5014270;28;20048;-65
2022/07/16 07:17:57;;;;;;;8.10;1.02;;;17.50;99.90;;;;;;5014763;28;20049;-65
2022/07/16 07:20:26;;;;;;;3.97;0.80;;;17.70;99.90;;;;;;5003428;28;20096;-64
2022/07/16 07:22:51;;;;;;;7.40;0.75;;;17.40;99.90;;;;;;5015505;28;20496;-65
2022/07/16 07:25:17;;;;;;;7.63;0.85;;;17.60;99.90;;;;;;5014915;28;20046;-65
2022/07/16 07:27:42;;;;;;;7.93;0.93;;;17.80;99.90;;;;;;5016302;28;20042;-64
2022/07/16 07:30:08;;;;;;;13.63;1.65;;;17.60;99.90;;;;;;5014941;28;20145;-65
2022/07/16 07:32:34;;;;;;;8.68;1.10;;;17.80;99.90;;;;;;5015285;28;20074;-65
2022/07/16 07:34:59;;;;;;;4.47;0.80;;;17.80;99.90;;;;;;5016088;28;20488;-64
2022/07/16 07:37:25;;;;;;;1.67;0.50;;;17.80;99.90;;;;;;5015527;28;20033;-62
2022/07/16 07:39:51;;;;;;;7.13;1.00;;;18.00;99.90;;;;;;5014283;28;20054;-65
2022/07/16 07:42:16;;;;;;;4.22;0.60;;;17.90;99.90;;;;;;5015693;28;20057;-64
2022/07/16 07:44:42;;;;;;;3.97;1.13;;;17.70;99.90;;;;;;5015266;28;20034;-64
2022/07/16 07:47:07;;;;;;;2.75;0.50;;;17.80;99.90;;;;;;5014337;28;20038;-65
2022/07/16 07:49:33;;;;;;;5.05;0.57;;;17.60;99.90;;;;;;5015683;28;20068;-65
2022/07/16 07:51:59;;;;;;;3.58;0.68;;;17.50;99.90;;;;;;5022548;28;20403;-63
2022/07/16 07:54:24;;;;;;;5.43;0.73;;;17.30;99.90;;;;;;5013254;28;20048;-64
2022/07/16 07:56:50;;;;;;;4.47;0.80;;;17.30;99.90;;;;;;5015659;28;20046;-65
2022/07/16 07:59:16;;;;;;;5.45;1.02;;;17.50;99.90;;;;;;5014313;28;20058;-65
2022/07/16 08:01:42;;;;;;;5.30;1.08;;;17.50;99.90;;;;;;5014455;28;20045;-65
2022/07/16 08:04:09;;;;;;;6.38;0.75;;;17.40;99.90;;;;;;5015499;28;20050;-65
2022/07/16 08:06:34;;;;;;;2.92;0.73;;;17.70;99.90;;;;;;5013986;28;20045;-64
2022/07/16 08:09:00;;;;;;;5.68;0.77;;;17.70;99.90;;;;;;5015487;28;20480;-61
2022/07/16 08:11:26;;;;;;;4.32;0.80;;;17.60;99.90;;;;;;5015404;28;20498;-65
2022/07/16 08:13:51;;;;;;;2.08;0.38;;;18.00;99.90;;;;;;5014479;28;20041;-64
2022/07/16 08:16:17;;;;;;;2.90;0.60;;;17.70;99.90;;;;;;5015212;28;20050;-64
2022/07/16 08:18:42;;;;;;;5.82;1.10;;;18.00;99.90;;;;;;5013990;28;20053;-64
2022/07/16 08:21:08;;;;;;;3.10;0.50;;;17.90;99.90;;;;;;5013256;28;20053;-64
2022/07/16 08:26:17;;;;;;;3.63;1.00;;;18.30;99.90;;;;;;5025076;28;20124;-64
2022/07/16 08:28:44;;;;;;;3.80;0.40;;;18.40;99.90;;;;;;5029539;28;20077;-64
2022/07/16 08:31:11;;;;;;;4.43;0.63;;;18.40;99.90;;;;;;5034932;28;20120;-64
2022/07/16 08:33:36;;;;;;;5.35;1.00;;;18.00;99.90;;;;;;5020104;28;20037;-64
2022/07/16 08:36:02;;;;;;;3.67;0.60;;;18.20;99.90;;;;;;5020517;28;20038;-64
2022/07/16 08:38:28;;;;;;;2.78;0.60;;;18.10;99.90;;;;;;5005858;28;20487;-64
2022/07/16 08:40:58;;;;;;;3.65;0.50;;;18.20;99.90;;;;;;5014525;28;20100;-64
2022/07/16 08:43:24;;;;;;;4.47;0.65;;;18.40;99.90;;;;;;5015032;28;20042;-64
2022/07/16 08:45:50;;;;;;;1.30;0.40;;;18.60;99.90;;;;;;5014687;28;20096;-64
2022/07/16 08:48:16;;;;;;;3.55;0.65;;;18.60;99.90;;;;;;5014570;28;20113;-64
2022/07/16 08:50:43;;;;;;;2.85;0.65;;;18.60;99.90;;;;;;5013451;28;20046;-64
2022/07/16 08:53:09;;;;;;;5.18;0.50;;;18.80;99.90;;;;;;5014787;28;20025;-64
2022/07/16 08:55:37;;;;;;;3.20;0.70;;;18.60;99.90;;;;;;5013391;28;20488;-64
2022/07/16 08:58:06;;;;;;;5.15;0.70;;;18.60;99.90;;;;;;5014478;28;20053;-64
2022/07/16 09:00:32;;;;;;;6.78;0.80;;;18.60;99.90;;;;;;5014051;28;20041;-64
2022/07/16 09:02:58;;;;;;;5.68;0.80;;;18.60;99.90;;;;;;5014111;28;20133;-64
2022/07/16 09:05:24;;;;;;;4.47;0.65;;;18.70;99.90;;;;;;5014044;28;20088;-64
2022/07/16 09:07:51;;;;;;;7.55;0.82;;;18.50;99.90;;;;;;5013020;28;20045;-64
2022/07/16 09:10:16;;;;;;;4.07;0.60;;;18.60;99.90;;;;;;5012549;28;20045;-64
2022/07/16 09:12:51;;;;;;;7.95;0.80;;;18.70;99.90;;;;;;5013262;28;20034;-65
2022/07/16 09:15:36;;;;;;;6.70;0.98;;;18.70;99.90;;;;;;5014426;28;20091;-64
2022/07/16 09:18:15;;;;;;;4.60;0.98;;;18.70;99.90;;;;;;5012148;28;20045;-64
2022/07/16 09:20:46;;;;;;;4.18;0.82;;;18.50;99.90;;;;;;5013344;28;20041;-64
2022/07/16 09:23:29;;;;;;;7.43;1.05;;;18.60;99.90;;;;;;4996538;28;20069;-63
2022/07/16 09:25:58;;;;;;;6.30;1.08;;;18.50;99.90;;;;;;5000707;28;20042;-62
2022/07/16 09:28:38;;;;;;;5.10;1.48;;;18.60;99.90;;;;;;5026208;28;20079;-64
2022/07/16 09:31:04;;;;;;;2.55;1.00;;;18.60;99.90;;;;;;5008177;28;20059;-64
2022/07/16 09:33:30;;;;;;;2.45;0.80;;;18.70;99.90;;;;;;5033944;28;20045;-64
2022/07/16 09:36:16;;;;;;;3.63;0.63;;;18.70;99.90;;;;;;5029183;28;20474;-64
2022/07/16 09:38:52;;;;;;;3.47;0.77;;;18.80;99.90;;;;;;5012559;28;20092;-64
2022/07/16 09:41:20;;;;;;;5.38;1.58;;;18.90;99.90;;;;;;5002506;28;20053;-64
2022/07/16 09:43:46;;;;;;;6.28;0.73;;;19.30;99.90;;;;;;5025856;28;20050;-64
2022/07/16 09:46:20;;;;;;;8.82;0.90;;;19.10;99.90;;;;;;5026855;28;20120;-65
2022/07/16 09:48:46;;;;;;;5.50;0.80;;;19.20;99.90;;;;;;5012870;28;20404;-64
2022/07/16 09:51:13;;;;;;;7.18;1.30;;;19.30;99.90;;;;;;5031666;28;20488;-65
2022/07/16 09:53:43;;;;;;;2.40;0.57;;;18.80;99.90;;;;;;5022602;28;20042;-64
2022/07/16 09:56:11;;;;;;;3.25;0.65;;;18.90;99.90;;;;;;5030505;28;20040;-64
2022/07/16 09:58:54;;;;;;;2.33;0.50;;;18.80;99.90;;;;;;5089916;28;20382;-64
2022/07/16 10:01:20;;;;;;;3.03;0.60;;;18.90;99.90;;;;;;5069857;28;20091;-63
2022/07/16 10:03:47;;;;;;;4.13;0.50;;;18.80;99.90;;;;;;5067568;28;20098;-64
2022/07/16 10:06:13;;;;;;;7.13;0.82;;;19.00;99.90;;;;;;5074611;28;20490;-65
2022/07/16 10:08:40;;;;;;;4.57;0.60;;;19.30;99.90;;;;;;5068399;28;20091;-65
2022/07/16 10:11:07;;;;;;;7.68;0.68;;;19.50;99.90;;;;;;5068235;28;20041;-66
2022/07/16 10:13:37;;;;;;;7.82;0.70;;;19.30;99.90;;;;;;5067826;28;20068;-62
2022/07/16 10:16:03;;;;;;;4.93;0.90;;;19.70;99.90;;;;;;5067625;28;20044;-65
2022/07/16 10:18:44;;;;;;;3.05;0.50;;;19.50;99.90;;;;;;5067155;28;21479;-66
2022/07/16 10:21:22;;;;;;;3.85;0.60;;;19.30;99.90;;;;;;5069496;28;20033;-66
2022/07/16 10:24:08;;;;;;;3.50;0.93;;;19.40;99.90;;;;;;5066354;28;20513;-66
2022/07/16 10:26:34;;;;;;;3.63;0.60;;;19.40;99.90;;;;;;5067594;28;20047;-66
2022/07/16 10:29:01;;;;;;;2.33;0.60;;;18.60;99.90;;;;;;5067785;28;20502;-66
2022/07/16 10:31:36;;;;;;;5.45;1.02;;;19.80;99.90;;;;;;5068059;28;20041;-66
2022/07/16 10:34:16;;;;;;;3.10;0.85;;;19.90;99.90;;;;;;5068074;28;20037;-66
2022/07/16 10:36:46;;;;;;;8.07;1.05;;;19.90;99.90;;;;;;5080044;28;20044;-66
2022/07/16 10:39:15;;;;;;;3.42;0.75;;;19.80;99.90;;;;;;5052724;28;20037;-65
2022/07/16 10:41:59;;;;;;;2.83;0.52;;;19.80;99.90;;;;;;5079605;28;20040;-65
2022/07/16 10:44:45;;;;;;;8.15;1.63;;;19.60;99.90;;;;;;5075088;28;20063;-66
2022/07/16 10:47:12;;;;;;;4.45;0.80;;;19.70;99.90;;;;;;5072029;28;20398;-65
2022/07/16 10:49:38;;;;;;;4.18;0.70;;;19.50;99.90;;;;;;5074017;28;20044;-66
2022/07/16 10:52:15;;;;;;;4.50;0.70;;;19.60;99.90;;;;;;5076094;28;20456;-66
2022/07/16 10:55:02;;;;;;;5.28;0.95;;;19.70;99.90;;;;;;5068853;28;20083;-65
2022/07/16 10:57:36;;;;;;;4.35;0.68;;;19.70;99.90;;;;;;5068292;28;20053;-66
2022/07/16 11:00:05;;;;;;;6.80;1.40;;;19.70;99.90;;;;;;5088609;28;20044;-66
2022/07/16 11:02:37;;;;;;;4.78;1.08;;;20.00;99.90;;;;;;5087490;28;20040;-66
2022/07/16 11:05:03;;;;;;;4.30;1.40;;;19.80;99.90;;;;;;5047028;28;20141;-66
2022/07/16 11:07:34;;;;;;;8.75;0.98;;;19.60;99.90;;;;;;5061376;28;20045;-66
2022/07/16 11:10:00;;;;;;;6.78;0.70;;;19.50;99.90;;;;;;5056192;28;20033;-66
2022/07/16 11:12:30;;;;;;;3.13;0.65;;;19.60;99.90;;;;;;5054799;28;20051;-66
2022/07/16 11:14:59;;;;;;;4.82;0.82;;;19.60;99.90;;;;;;5055497;28;20175;-66
2022/07/16 11:17:28;;;;;;;8.02;0.85;;;19.80;99.90;;;;;;5054874;28;20522;-66
2022/07/16 11:19:59;;;;;;;8.90;1.85;;;19.70;99.90;;;;;;5057741;28;20056;-66
2022/07/16 11:22:28;;;;;;;6.38;0.80;;;19.70;99.90;;;;;;5057355;28;20041;-63
2022/07/16 11:24:56;;;;;;;3.60;0.45;;;19.40;99.90;;;;;;5054698;28;20125;-66
2022/07/16 11:27:29;;;;;;;5.78;0.90;;;19.50;99.90;;;;;;5059114;28;20615;-66
2022/07/16 11:30:00;;;;;;;4.28;0.50;;;19.60;99.90;;;;;;5054770;28;20418;-66
2022/07/16 11:32:26;;;;;;;7.10;0.95;;;19.80;99.90;;;;;;5053347;28;20043;-65
2022/07/16 11:34:52;;;;;;;3.30;0.50;;;20.10;99.90;;;;;;5053382;28;20049;-66
2022/07/16 11:37:18;;;;;;;4.57;0.60;;;20.10;99.90;;;;;;5052887;28;20044;-66
2022/07/16 11:39:44;;;;;;;4.35;0.85;;;20.00;99.90;;;;;;5054292;28;20380;-66
2022/07/16 11:42:09;;;;;;;4.07;0.60;;;20.10;99.90;;;;;;5068666;28;20043;-65
2022/07/16 11:44:39;;;;;;;4.00;0.60;;;20.20;99.90;;;;;;5053305;28;20037;-66
2022/07/16 11:47:07;;;;;;;4.90;0.60;;;20.30;99.90;;;;;;5053302;28;20036;-66
2022/07/16 11:49:34;;;;;;;4.15;0.60;;;20.20;99.90;;;;;;5073046;28;20040;-65
2022/07/16 11:52:02;;;;;;;8.50;0.60;;;20.30;99.90;;;;;;5073200;28;20044;-66
2022/07/16 11:54:29;;;;;;;4.20;0.63;;;20.60;99.90;;;;;;5061240;28;20037;-66
2022/07/16 11:56:56;;;;;;;3.85;0.50;;;20.70;99.90;;;;;;5054039;28;20091;-66
2022/07/16 11:59:27;;;;;;;4.03;0.70;;;21.50;99.90;;;;;;5054037;28;20136;-66
2022/07/16 12:02:04;;;;;;;3.65;0.88;;;20.40;99.90;;;;;;5061349;28;20072;-66
2022/07/16 12:04:41;;;;;;;4.55;0.93;;;20.50;99.90;;;;;;5053201;28;20487;-66
2022/07/16 12:07:30;;;;;;;6.03;0.70;;;20.40;99.90;;;;;;5051994;28;20060;-66
2022/07/16 12:09:59;;;;;;;4.65;0.63;;;20.50;99.90;;;;;;5029373;28;20503;-65
2022/07/16 12:12:27;;;;;;;5.38;0.70;;;20.50;99.90;;;;;;5030325;28;20466;-65
2022/07/16 12:14:56;;;;;;;6.47;0.98;;;20.60;99.90;;;;;;5044878;28;20088;-64
2022/07/16 12:17:24;;;;;;;3.58;0.93;;;20.40;99.90;;;;;;5040401;28;20387;-65
2022/07/16 12:20:17;;;;;;;5.35;0.82;;;20.30;99.90;;;;;;5034460;28;20041;-64
2022/07/16 12:22:53;;;;;;;3.38;0.65;;;20.40;99.90;;;;;;5057011;28;20044;-63
2022/07/16 12:25:34;;;;;;;4.72;0.90;;;20.50;99.90;;;;;;5066957;28;20055;-65
2022/07/16 12:28:05;;;;;;;5.45;0.68;;;20.50;99.90;;;;;;5049077;28;20053;-65
2022/07/16 12:30:51;;;;;;;3.75;0.65;;;20.40;99.90;;;;;;5062866;28;20044;-65
2022/07/16 12:33:20;;;;;;;3.70;0.70;;;20.80;99.90;;;;;;5050388;28;20102;-65
2022/07/16 12:35:48;;;;;;;6.47;1.00;;;20.70;99.90;;;;;;5049739;28;20086;-65
2022/07/16 12:38:34;;;;;;;6.43;0.77;;;20.60;99.90;;;;;;5048418;28;20045;-65
2022/07/16 12:40:59;;;;;;;5.15;0.60;;;20.80;99.90;;;;;;5063970;28;20044;-65
2022/07/16 12:43:25;;;;;;;6.35;0.70;;;20.50;99.90;;;;;;5048819;28;20438;-62
2022/07/16 12:45:51;;;;;;;6.32;2.15;;;20.70;99.90;;;;;;5050894;28;20045;-65
2022/07/16 12:48:17;;;;;;;4.97;0.52;;;20.40;99.90;;;;;;5068812;28;20079;-65
2022/07/16 12:50:42;;;;;;;4.85;0.70;;;20.50;99.90;;;;;;5070068;28;20068;-66
2022/07/16 12:53:08;;;;;;;3.72;0.57;;;20.40;99.90;;;;;;5052909;28;20044;-66
2022/07/16 13:01:01;;;;;;;4.63;1.03;;;20.60;99.90;;;;;;5032455;28;20080;-64
2022/07/16 13:03:27;;;;;;;5.03;0.82;;;20.30;99.90;;;;;;5045299;28;20495;-64